Time;durP1;ratioP1;P1;durP2;ratioP2;P2;SDS_P1;SDS_P2;PMS_P1;PMS_P2;Temp;Humidity;BMP_temperature;BMP_pressure;BME280_temperature;BME280_humidity;BME280_pressure;Samples;Min_cycle;Max_cycle;Signal;HPM_P1;HPM_P2
2024/02/10 00:01:07;;;;;;;9.10;6.57;;;10.00;58.90;;;;;;5025217;28;20608;-64
2024/02/10 00:03:35;;;;;;;9.10;7.00;;;10.20;58.50;;;;;;5030716;28;20605;-64
2024/02/10 00:06:01;;;;;;;10.40;7.17;;;10.10;58.50;;;;;;5029975;28;20225;-64
2024/02/10 00:08:28;;;;;;;10.87;7.57;;;10.20;58.60;;;;;;5030968;28;20643;-64
2024/02/10 00:10:55;;;;;;;10.47;8.10;;;10.20;58.70;;;;;;5027946;28;20306;-64
2024/02/10 00:13:21;;;;;;;9.53;7.70;;;10.30;58.10;;;;;;5030716;28;20208;-65
2024/02/10 00:15:49;;;;;;;13.00;7.37;;;10.30;59.10;;;;;;5021676;28;20202;-64
2024/02/10 00:18:18;;;;;;;10.47;7.30;;;10.20;58.60;;;;;;5026888;28;20220;-64
2024/02/10 00:20:45;;;;;;;8.47;7.60;;;10.20;58.80;;;;;;5030731;28;20400;-64
2024/02/10 00:23:11;;;;;;;9.90;7.70;;;10.10;58.90;;;;;;5022663;28;20220;-64
2024/02/10 00:25:41;;;;;;;11.60;7.23;;;9.90;60.50;;;;;;5030898;28;20235;-64
2024/02/10 00:28:10;;;;;;;9.97;7.37;;;9.90;60.80;;;;;;5030671;28;20271;-64
2024/02/10 00:30:37;;;;;;;11.30;7.73;;;10.10;59.60;;;;;;5030402;28;20220;-65
2024/02/10 00:33:04;;;;;;;12.30;7.93;;;10.10;59.20;;;;;;5021122;28;20228;-64
2024/02/10 00:35:30;;;;;;;13.80;8.27;;;10.00;59.60;;;;;;5023539;28;20244;-64
2024/02/10 00:37:57;;;;;;;12.60;7.67;;;10.00;59.30;;;;;;5030698;28;20214;-64
2024/02/10 00:40:23;;;;;;;10.83;7.53;;;9.90;61.00;;;;;;5022734;28;20582;-64
2024/02/10 00:42:51;;;;;;;12.40;7.73;;;9.90;61.10;;;;;;5030632;28;20741;-64
2024/02/10 00:45:18;;;;;;;12.13;8.23;;;9.90;61.10;;;;;;5031007;28;20212;-64
2024/02/10 00:47:45;;;;;;;10.77;7.13;;;9.90;61.30;;;;;;5030709;28;20220;-65
2024/02/10 00:50:11;;;;;;;10.63;7.70;;;9.80;61.70;;;;;;5023986;28;20210;-65
2024/02/10 00:52:40;;;;;;;10.97;7.37;;;9.90;61.50;;;;;;5024376;28;20244;-65
2024/02/10 00:55:06;;;;;;;10.07;7.87;;;9.90;61.50;;;;;;5030296;28;20217;-64
2024/02/10 00:57:33;;;;;;;10.90;7.13;;;9.90;61.50;;;;;;5019162;28;20287;-64
2024/02/10 00:59:59;;;;;;;11.60;7.50;;;9.80;62.20;;;;;;5026030;28;20601;-64
2024/02/10 01:02:26;;;;;;;15.17;8.30;;;9.70;62.00;;;;;;5013892;28;20288;-64
2024/02/10 01:04:54;;;;;;;9.50;7.00;;;9.70;62.00;;;;;;5030456;28;20212;-64
2024/02/10 01:07:23;;;;;;;11.37;7.53;;;9.70;62.00;;;;;;5020607;28;20317;-64
2024/02/10 01:09:49;;;;;;;10.23;7.20;;;9.70;61.90;;;;;;5020882;28;20351;-64
2024/02/10 01:12:16;;;;;;;11.57;8.17;;;9.70;62.00;;;;;;5027863;28;20275;-64
2024/02/10 01:14:42;;;;;;;10.47;7.90;;;9.80;61.80;;;;;;5029412;28;20209;-64
2024/02/10 01:17:10;;;;;;;12.00;8.07;;;9.90;61.70;;;;;;5025518;28;20213;-64
2024/02/10 01:19:37;;;;;;;11.70;8.33;;;9.70;61.60;;;;;;5033702;28;20231;-64
2024/02/10 01:22:04;;;;;;;9.53;7.97;;;9.80;61.70;;;;;;5034148;28;20233;-64
2024/02/10 01:24:31;;;;;;;12.63;8.67;;;9.80;61.70;;;;;;5025541;28;20212;-65
2024/02/10 01:26:58;;;;;;;11.53;8.00;;;9.80;62.10;;;;;;5023093;28;20231;-64
2024/02/10 01:29:24;;;;;;;14.17;8.43;;;9.90;61.40;;;;;;5028163;28;20216;-65
2024/02/10 01:31:51;;;;;;;14.87;8.37;;;9.90;60.80;;;;;;5028262;28;20300;-64
2024/02/10 01:34:17;;;;;;;10.63;7.73;;;9.90;61.50;;;;;;5030046;28;20302;-64
2024/02/10 01:36:44;;;;;;;11.47;8.03;;;9.90;61.60;;;;;;5028675;28;20659;-64
2024/02/10 01:39:11;;;;;;;12.37;8.17;;;9.70;61.90;;;;;;5033222;28;20219;-64
2024/02/10 01:41:38;;;;;;;10.33;8.43;;;9.60;62.40;;;;;;5033147;28;20233;-64
2024/02/10 01:44:05;;;;;;;11.60;8.70;;;9.60;62.80;;;;;;5023974;28;20205;-64
2024/02/10 01:46:32;;;;;;;15.07;8.53;;;9.70;62.70;;;;;;5027837;28;20778;-64
2024/02/10 01:48:59;;;;;;;11.60;8.20;;;9.60;62.50;;;;;;5028820;28;20217;-64
2024/02/10 01:51:25;;;;;;;15.00;8.63;;;9.60;62.80;;;;;;5032949;28;20283;-64
2024/02/10 01:53:51;;;;;;;11.87;7.83;;;9.60;62.50;;;;;;5032842;28;20270;-63
2024/02/10 01:56:17;;;;;;;12.13;7.50;;;9.50;63.00;;;;;;5033367;28;20200;-64
2024/02/10 01:58:44;;;;;;;10.13;7.30;;;9.70;62.60;;;;;;5032781;28;20205;-64
2024/02/10 02:01:11;;;;;;;10.40;8.07;;;9.60;62.80;;;;;;5015660;28;20665;-64
2024/02/10 02:03:42;;;;;;;10.90;7.43;;;9.40;62.90;;;;;;5028150;28;20696;-65
2024/02/10 02:06:10;;;;;;;10.60;7.70;;;9.50;63.00;;;;;;5029932;28;20324;-64
2024/02/10 02:08:37;;;;;;;11.53;7.80;;;9.50;63.00;;;;;;5033869;28;20220;-64
2024/02/10 02:11:04;;;;;;;9.97;7.13;;;9.40;62.90;;;;;;5029411;28;20229;-64
2024/02/10 02:13:31;;;;;;;11.67;7.00;;;9.20;63.80;;;;;;5024712;28;20706;-64
2024/02/10 02:15:58;;;;;;;11.50;7.43;;;9.30;63.70;;;;;;5032995;28;20235;-64
2024/02/10 02:18:25;;;;;;;9.23;8.00;;;9.40;63.40;;;;;;5028044;28;20217;-64
2024/02/10 02:20:51;;;;;;;11.80;7.83;;;9.30;62.80;;;;;;5026847;28;20209;-65
2024/02/10 02:23:19;;;;;;;10.97;7.50;;;9.40;63.40;;;;;;5031267;28;20215;-64
2024/02/10 02:25:48;;;;;;;10.93;7.77;;;9.20;63.40;;;;;;5025324;28;20220;-64
2024/02/10 02:28:14;;;;;;;11.93;8.37;;;9.20;63.80;;;;;;5032189;28;20598;-64
2024/02/10 02:30:41;;;;;;;10.97;8.03;;;9.10;63.70;;;;;;5028259;28;20213;-64
2024/02/10 02:33:10;;;;;;;9.57;7.50;;;9.10;64.30;;;;;;5029690;28;20271;-64
2024/02/10 02:35:38;;;;;;;9.37;7.63;;;9.20;64.10;;;;;;5029323;28;20679;-64
2024/02/10 02:38:04;;;;;;;11.23;8.07;;;9.10;64.30;;;;;;5026767;28;20209;-64
2024/02/10 02:40:31;;;;;;;11.33;7.77;;;9.10;64.10;;;;;;5032631;28;20268;-64
2024/02/10 02:43:02;;;;;;;10.83;7.83;;;9.00;63.90;;;;;;5030535;28;20231;-64
2024/02/10 02:45:29;;;;;;;13.10;7.40;;;9.10;64.20;;;;;;5024410;28;20222;-64
2024/02/10 02:48:01;;;;;;;10.90;7.87;;;9.20;64.00;;;;;;5032956;28;20228;-65
2024/02/10 02:50:28;;;;;;;11.37;7.87;;;9.30;63.20;;;;;;5026495;28;20612;-64
2024/02/10 02:52:57;;;;;;;10.47;7.23;;;9.30;63.60;;;;;;5025364;28;20275;-65
2024/02/10 02:55:24;;;;;;;10.83;7.33;;;9.30;63.20;;;;;;5028285;28;20216;-65
2024/02/10 02:57:50;;;;;;;9.87;7.40;;;9.30;63.30;;;;;;5022538;28;20632;-64
2024/02/10 03:00:17;;;;;;;9.90;7.20;;;9.30;63.30;;;;;;5029323;28;20265;-64
2024/02/10 03:02:44;;;;;;;10.20;7.00;;;9.40;63.00;;;;;;5032324;28;20229;-64
2024/02/10 03:05:11;;;;;;;13.93;7.97;;;9.50;62.80;;;;;;5026117;28;20219;-64
2024/02/10 03:07:45;;;;;;;15.27;8.77;;;9.50;62.60;;;;;;5030004;28;20268;-65
2024/02/10 03:10:12;;;;;;;10.47;7.90;;;9.40;62.80;;;;;;5029270;28;20693;-65
2024/02/10 03:12:38;;;;;;;11.67;7.53;;;9.40;62.90;;;;;;5032595;28;20236;-64
2024/02/10 03:15:05;;;;;;;12.73;7.07;;;9.40;62.90;;;;;;5022015;28;20210;-65
2024/02/10 03:17:32;;;;;;;11.93;7.97;;;9.20;63.00;;;;;;5027288;28;20204;-65
2024/02/10 03:19:58;;;;;;;10.17;7.80;;;9.30;63.40;;;;;;5025232;28;20241;-65
2024/02/10 03:22:25;;;;;;;9.37;7.40;;;9.10;63.80;;;;;;5025752;28;20277;-64
2024/02/10 03:24:53;;;;;;;10.87;7.43;;;9.00;64.50;;;;;;5032294;28;20703;-64
2024/02/10 03:27:20;;;;;;;11.97;7.77;;;9.00;65.00;;;;;;5031195;28;20248;-64
2024/02/10 03:29:46;;;;;;;10.23;7.50;;;9.00;64.90;;;;;;5028055;28;20586;-64
2024/02/10 03:32:13;;;;;;;11.83;7.93;;;9.10;64.90;;;;;;5023112;28;20238;-64
2024/02/10 03:34:39;;;;;;;13.07;8.63;;;9.00;64.50;;;;;;5028285;28;20216;-64
2024/02/10 03:37:06;;;;;;;11.40;8.10;;;8.90;64.80;;;;;;5017766;28;20289;-64
2024/02/10 03:39:32;;;;;;;12.50;7.97;;;8.90;64.90;;;;;;5023857;28;20279;-64
2024/02/10 03:41:59;;;;;;;10.40;7.93;;;8.80;65.00;;;;;;5024768;28;20294;-65
2024/02/10 03:44:25;;;;;;;10.30;7.40;;;8.80;65.40;;;;;;5031052;28;20215;-64
2024/02/10 03:46:52;;;;;;;11.13;7.47;;;8.80;65.40;;;;;;5019433;28;20234;-65
2024/02/10 03:49:19;;;;;;;11.47;7.67;;;9.00;64.80;;;;;;5029039;28;20277;-64
2024/02/10 03:51:45;;;;;;;11.67;8.10;;;9.10;64.60;;;;;;5021115;28;20233;-64
2024/02/10 03:54:12;;;;;;;9.20;7.20;;;9.10;64.30;;;;;;5028909;28;20243;-64
2024/02/10 03:56:40;;;;;;;9.53;7.63;;;9.20;64.10;;;;;;5029160;28;20253;-64
2024/02/10 03:59:07;;;;;;;10.10;7.70;;;9.30;63.10;;;;;;5023066;28;20621;-64
2024/02/10 04:01:34;;;;;;;11.83;7.47;;;9.20;63.40;;;;;;5023406;28;20650;-64
2024/02/10 04:04:01;;;;;;;10.90;7.50;;;9.10;63.80;;;;;;5026651;28;20216;-64
2024/02/10 04:06:28;;;;;;;10.73;7.80;;;8.90;64.40;;;;;;5028527;28;20270;-64
2024/02/10 04:08:55;;;;;;;8.63;7.73;;;8.80;64.90;;;;;;5019409;28;20208;-64
2024/02/10 04:11:22;;;;;;;11.53;7.60;;;8.70;65.60;;;;;;5024855;28;20252;-64
2024/02/10 04:13:50;;;;;;;10.67;8.20;;;8.80;65.70;;;;;;5022690;28;20211;-64
2024/02/10 04:16:17;;;;;;;12.87;8.43;;;8.70;65.40;;;;;;5031214;28;20208;-64
2024/02/10 04:18:43;;;;;;;10.27;7.63;;;8.70;65.40;;;;;;5024254;28;20205;-64
2024/02/10 04:21:10;;;;;;;10.40;7.73;;;8.60;65.80;;;;;;5031366;28;20223;-64
2024/02/10 04:23:37;;;;;;;10.73;7.53;;;8.70;65.70;;;;;;5022855;28;20872;-64
2024/02/10 04:26:05;;;;;;;9.37;7.77;;;8.70;65.50;;;;;;5012794;28;20209;-64
2024/02/10 04:28:31;;;;;;;11.17;7.73;;;8.70;66.10;;;;;;5028535;28;20254;-64
2024/02/10 04:30:58;;;;;;;12.50;8.53;;;8.60;66.30;;;;;;5030850;28;20260;-65
2024/02/10 04:33:24;;;;;;;13.60;7.83;;;8.50;66.70;;;;;;5030721;28;20211;-64
2024/02/10 04:35:51;;;;;;;13.90;8.43;;;8.40;66.60;;;;;;5031461;28;20202;-65
2024/02/10 04:38:17;;;;;;;10.17;7.63;;;8.30;66.50;;;;;;5031142;28;20470;-64
2024/02/10 04:40:45;;;;;;;14.10;9.40;;;8.30;66.50;;;;;;5030970;28;20577;-64
2024/02/10 04:43:11;;;;;;;12.93;8.03;;;8.30;67.20;;;;;;5026989;28;20273;-64
2024/02/10 04:45:38;;;;;;;11.10;7.60;;;8.40;66.60;;;;;;5019119;28;20477;-64
2024/02/10 04:48:04;;;;;;;10.33;7.50;;;8.40;66.60;;;;;;5026955;28;20262;-65
2024/02/10 04:50:31;;;;;;;9.93;7.50;;;8.40;66.50;;;;;;5023371;28;20264;-64
2024/02/10 04:52:57;;;;;;;10.33;7.50;;;8.40;66.60;;;;;;5034920;28;20235;-64
2024/02/10 04:55:24;;;;;;;10.30;8.13;;;8.50;66.70;;;;;;5034779;28;20296;-64
2024/02/10 04:57:50;;;;;;;9.47;8.07;;;8.40;66.20;;;;;;5034583;28;20215;-64
2024/02/10 05:00:17;;;;;;;10.13;7.77;;;8.50;66.70;;;;;;5034357;28;20215;-64
2024/02/10 05:02:44;;;;;;;11.23;8.13;;;8.40;66.60;;;;;;5024614;28;20308;-64
2024/02/10 05:05:11;;;;;;;9.97;7.67;;;8.40;66.60;;;;;;5027494;28;20207;-64
2024/02/10 05:07:38;;;;;;;8.83;7.40;;;8.30;66.50;;;;;;5034478;28;20227;-64
2024/02/10 05:10:06;;;;;;;11.90;7.90;;;8.30;66.70;;;;;;5034778;28;20579;-64
2024/02/10 05:12:33;;;;;;;12.93;7.80;;;8.30;67.00;;;;;;5025755;28;20282;-64
2024/02/10 05:14:59;;;;;;;11.33;7.97;;;8.40;66.60;;;;;;5030648;28;20210;-64
2024/02/10 05:17:26;;;;;;;13.93;8.23;;;8.50;66.50;;;;;;5034355;28;20225;-64
2024/02/10 05:19:53;;;;;;;9.83;7.30;;;8.50;66.70;;;;;;5023188;28;20258;-64
2024/02/10 05:22:21;;;;;;;10.90;7.47;;;8.60;66.80;;;;;;5021803;28;20228;-64
2024/02/10 05:24:47;;;;;;;10.83;7.50;;;8.60;66.80;;;;;;5033993;28;20562;-64
2024/02/10 05:27:14;;;;;;;12.37;8.37;;;8.80;65.50;;;;;;5034399;28;20237;-64
2024/02/10 05:29:40;;;;;;;8.67;7.20;;;8.80;65.60;;;;;;5034309;28;20261;-64
2024/02/10 05:32:06;;;;;;;10.63;7.07;;;8.90;65.50;;;;;;5034725;28;20230;-64
2024/02/10 05:34:33;;;;;;;12.50;8.20;;;8.90;65.00;;;;;;5025865;28;20638;-64
2024/02/10 05:37:03;;;;;;;11.57;7.10;;;9.00;64.40;;;;;;5025668;28;20208;-64
2024/02/10 05:39:30;;;;;;;13.73;7.67;;;9.00;63.80;;;;;;5028015;28;20226;-64
2024/02/10 05:41:59;;;;;;;9.97;7.07;;;9.00;63.70;;;;;;5027264;28;20760;-64
2024/02/10 05:44:26;;;;;;;11.53;7.53;;;9.00;63.50;;;;;;5033539;28;20218;-64
2024/02/10 05:46:53;;;;;;;10.73;6.70;;;9.10;62.90;;;;;;5033634;28;20957;-63
2024/02/10 05:49:21;;;;;;;8.43;6.37;;;8.90;62.70;;;;;;5027037;28;20294;-64
2024/02/10 05:51:48;;;;;;;10.13;7.00;;;9.00;62.70;;;;;;5028265;28;20239;-64
2024/02/10 05:54:15;;;;;;;9.10;6.10;;;8.90;63.00;;;;;;5034267;28;20204;-64
2024/02/10 05:56:43;;;;;;;7.90;6.07;;;8.80;63.20;;;;;;5034274;28;20233;-64
2024/02/10 05:59:09;;;;;;;12.53;6.80;;;8.80;63.00;;;;;;5032035;28;20204;-64
2024/02/10 06:01:36;;;;;;;12.60;6.60;;;8.80;63.20;;;;;;5034731;28;20269;-64
2024/02/10 06:04:08;;;;;;;9.70;6.57;;;8.80;63.40;;;;;;5025539;28;20293;-64
2024/02/10 06:06:35;;;;;;;7.37;6.07;;;8.90;63.20;;;;;;5022540;28;20290;-63
2024/02/10 06:09:02;;;;;;;9.67;6.73;;;8.90;62.80;;;;;;5032391;28;20208;-64
2024/02/10 06:11:30;;;;;;;11.30;6.93;;;8.80;62.60;;;;;;5024901;28;20315;-64
2024/02/10 06:13:57;;;;;;;9.57;6.30;;;8.70;62.80;;;;;;5027175;28;20303;-64
2024/02/10 06:16:24;;;;;;;9.57;5.93;;;8.70;62.90;;;;;;5031501;28;20211;-64
2024/02/10 06:18:50;;;;;;;10.97;6.63;;;8.80;62.60;;;;;;5027859;28;20200;-64
2024/02/10 06:21:17;;;;;;;9.40;6.00;;;8.90;61.70;;;;;;5021718;28;20227;-64
2024/02/10 06:23:43;;;;;;;7.83;6.17;;;9.00;61.40;;;;;;5023188;28;20207;-64
2024/02/10 06:26:10;;;;;;;8.50;5.87;;;8.90;61.20;;;;;;5030759;28;20286;-64
2024/02/10 06:28:37;;;;;;;17.43;6.50;;;8.80;62.00;;;;;;5033284;28;20262;-64
2024/02/10 06:31:03;;;;;;;8.40;5.97;;;8.60;62.20;;;;;;5033257;28;20267;-64
2024/02/10 06:33:30;;;;;;;7.77;5.90;;;8.80;62.30;;;;;;5031496;28;20203;-64
2024/02/10 06:35:58;;;;;;;7.43;5.80;;;9.00;60.80;;;;;;5033432;28;20323;-64
2024/02/10 06:38:32;;;;;;;8.50;5.80;;;9.10;60.00;;;;;;5032979;28;20203;-64
2024/02/10 06:40:58;;;;;;;8.67;5.33;;;9.00;59.70;;;;;;5015195;28;20647;-64
2024/02/10 06:43:25;;;;;;;9.17;5.40;;;9.00;59.90;;;;;;5029266;28;20211;-64
2024/02/10 06:45:51;;;;;;;9.67;6.03;;;8.90;60.20;;;;;;5033030;28;20210;-64
2024/02/10 06:48:19;;;;;;;6.93;5.60;;;8.90;59.60;;;;;;5026832;28;20624;-64
2024/02/10 06:50:45;;;;;;;6.90;5.53;;;8.90;59.40;;;;;;5019751;28;20204;-64
2024/02/10 06:53:12;;;;;;;6.33;5.17;;;8.80;59.60;;;;;;5021422;28;20240;-64
2024/02/10 06:55:38;;;;;;;6.17;5.33;;;8.70;60.00;;;;;;5014338;28;20792;-65
2024/02/10 06:58:04;;;;;;;8.10;5.50;;;8.80;60.20;;;;;;5024779;28;20262;-64
2024/02/10 07:00:37;;;;;;;9.70;6.23;;;8.80;60.50;;;;;;5025753;28;20249;-64
2024/02/10 07:03:04;;;;;;;6.23;5.50;;;8.70;60.30;;;;;;5028707;28;20229;-64
2024/02/10 07:05:33;;;;;;;9.93;5.67;;;8.60;61.00;;;;;;5026663;28;20559;-64
2024/02/10 07:07:59;;;;;;;7.47;5.70;;;8.80;61.20;;;;;;5026148;28;20277;-64
2024/02/10 07:10:26;;;;;;;8.37;5.60;;;8.70;61.30;;;;;;5017876;28;20216;-65
2024/02/10 07:12:53;;;;;;;7.23;5.73;;;8.70;61.30;;;;;;5016825;28;20297;-65
2024/02/10 07:15:19;;;;;;;9.10;5.57;;;8.70;60.90;;;;;;5029508;28;20723;-65
2024/02/10 07:17:47;;;;;;;11.20;5.90;;;8.70;61.00;;;;;;5020955;28;20257;-65
2024/02/10 07:20:15;;;;;;;6.87;5.70;;;8.90;61.00;;;;;;5019407;28;20231;-65
2024/02/10 07:22:43;;;;;;;8.23;5.90;;;8.80;61.30;;;;;;5025444;28;20234;-65
2024/02/10 07:25:11;;;;;;;8.60;5.90;;;8.90;61.00;;;;;;5023756;28;20599;-65
2024/02/10 07:27:38;;;;;;;8.43;5.53;;;8.90;60.80;;;;;;5026039;28;20274;-65
2024/02/10 07:30:04;;;;;;;9.13;5.07;;;8.90;61.00;;;;;;5018008;28;20258;-65
2024/02/10 07:32:32;;;;;;;7.80;5.97;;;9.00;60.60;;;;;;5026344;28;20279;-65
2024/02/10 07:35:00;;;;;;;8.17;5.87;;;9.00;61.10;;;;;;5018827;28;20658;-65
2024/02/10 07:37:27;;;;;;;9.83;6.43;;;9.00;61.40;;;;;;5025154;28;20196;-65
2024/02/10 07:39:53;;;;;;;9.87;7.57;;;9.00;61.30;;;;;;5020582;28;20228;-65
2024/02/10 07:42:21;;;;;;;9.40;6.77;;;9.00;61.30;;;;;;5019882;28;20228;-65
2024/02/10 07:44:49;;;;;;;9.47;6.73;;;9.10;61.10;;;;;;4983569;28;20756;-65
2024/02/10 07:47:19;;;;;;;9.67;6.27;;;9.20;61.50;;;;;;4996190;28;20212;-64
2024/02/10 07:49:48;;;;;;;9.13;5.90;;;9.20;60.50;;;;;;4995111;28;20577;-65
2024/02/10 07:52:14;;;;;;;9.33;6.27;;;9.20;60.60;;;;;;4989356;28;20332;-65
2024/02/10 07:54:46;;;;;;;9.80;6.93;;;9.30;60.60;;;;;;5006297;28;20204;-65
2024/02/10 07:57:19;;;;;;;9.90;7.00;;;9.20;61.20;;;;;;5008815;28;20647;-65
2024/02/10 07:59:46;;;;;;;7.93;6.70;;;9.20;61.40;;;;;;4994067;28;20206;-65
2024/02/10 08:02:13;;;;;;;11.17;7.20;;;9.30;61.20;;;;;;5006016;28;20309;-65
2024/02/10 08:04:40;;;;;;;15.70;7.70;;;9.40;60.90;;;;;;4998840;28;20245;-65
2024/02/10 08:07:07;;;;;;;10.17;6.70;;;9.40;61.10;;;;;;5003779;28;20206;-65
2024/02/10 08:09:33;;;;;;;13.40;7.53;;;9.50;60.70;;;;;;4997423;28;20206;-65
2024/02/10 08:12:01;;;;;;;12.33;7.23;;;9.50;60.40;;;;;;5000939;28;20233;-64
2024/02/10 08:14:27;;;;;;;11.43;8.17;;;9.50;60.90;;;;;;4997154;28;20307;-66
2024/02/10 08:16:54;;;;;;;11.53;7.77;;;9.40;61.70;;;;;;5004070;28;20264;-65
2024/02/10 08:19:20;;;;;;;10.33;7.33;;;9.60;61.00;;;;;;5007027;28;20209;-65
2024/02/10 08:21:48;;;;;;;11.17;7.57;;;9.40;60.80;;;;;;5005776;28;20225;-65
2024/02/10 08:24:14;;;;;;;11.53;7.83;;;9.50;61.80;;;;;;5009857;28;20599;-65
2024/02/10 08:26:41;;;;;;;12.90;8.10;;;9.60;61.20;;;;;;5002538;28;20296;-65
2024/02/10 08:29:07;;;;;;;13.33;8.50;;;9.50;61.50;;;;;;5000206;28;20232;-65
2024/02/10 08:31:36;;;;;;;13.30;8.30;;;9.60;61.20;;;;;;5002266;28;20667;-66
2024/02/10 08:34:03;;;;;;;12.57;8.20;;;9.60;61.80;;;;;;5008466;28;20245;-65
2024/02/10 08:36:31;;;;;;;12.27;8.00;;;9.70;61.40;;;;;;5006528;28;20354;-66
2024/02/10 08:38:58;;;;;;;13.97;8.13;;;9.70;60.70;;;;;;4993031;28;20273;-66
2024/02/10 08:41:27;;;;;;;11.73;8.13;;;9.60;61.30;;;;;;5006204;28;20232;-66
2024/02/10 08:43:53;;;;;;;15.33;8.10;;;9.70;61.20;;;;;;5002502;28;20208;-65
2024/02/10 08:46:22;;;;;;;12.77;8.73;;;9.80;61.10;;;;;;5009845;28;20247;-66
2024/02/10 08:48:49;;;;;;;12.80;8.63;;;9.80;61.10;;;;;;5000393;28;20240;-65
2024/02/10 08:51:16;;;;;;;12.97;9.33;;;9.80;60.90;;;;;;5004845;28;20238;-65
2024/02/10 08:53:42;;;;;;;10.80;8.60;;;9.80;61.00;;;;;;5000859;28;20225;-64
2024/02/10 08:56:11;;;;;;;14.37;8.37;;;9.80;61.40;;;;;;4999839;28;20661;-64
2024/02/10 08:58:39;;;;;;;11.70;8.23;;;9.70;61.40;;;;;;5004791;28;20207;-65
2024/02/10 09:01:06;;;;;;;11.93;8.37;;;9.80;61.50;;;;;;4995910;28;20232;-65
2024/02/10 09:03:33;;;;;;;15.07;9.10;;;9.90;61.40;;;;;;4997542;28;20679;-65
2024/02/10 09:05:59;;;;;;;13.40;9.13;;;9.90;61.30;;;;;;5000180;28;20662;-65
2024/02/10 09:08:26;;;;;;;15.80;9.83;;;9.80;61.30;;;;;;5001649;28;20253;-65
2024/02/10 09:10:52;;;;;;;13.60;9.37;;;9.70;61.60;;;;;;5005753;28;20214;-65
2024/02/10 09:13:19;;;;;;;16.47;9.97;;;9.70;62.00;;;;;;4998231;28;20636;-65
2024/02/10 09:15:46;;;;;;;11.93;8.20;;;9.60;61.90;;;;;;5006299;28;20206;-66
2024/02/10 09:18:12;;;;;;;14.23;10.13;;;9.70;61.70;;;;;;5005508;28;20263;-64
2024/02/10 09:20:39;;;;;;;15.87;8.73;;;9.70;61.30;;;;;;4994900;28;20213;-64
2024/02/10 09:23:06;;;;;;;12.00;9.10;;;9.70;61.30;;;;;;4997113;28;20222;-64
2024/02/10 09:25:36;;;;;;;13.93;9.77;;;9.70;61.20;;;;;;4998035;28;20235;-67
2024/02/10 09:28:03;;;;;;;14.87;9.53;;;9.70;61.50;;;;;;4992748;28;20221;-65
2024/02/10 09:30:29;;;;;;;9.60;8.57;;;9.70;61.40;;;;;;4995660;28;20209;-65
2024/02/10 09:32:56;;;;;;;11.90;8.40;;;9.90;61.40;;;;;;5011290;28;20233;-64
2024/02/10 09:35:23;;;;;;;11.50;8.67;;;9.90;60.70;;;;;;4991911;28;20222;-65
2024/02/10 09:37:49;;;;;;;11.73;8.90;;;9.90;60.30;;;;;;5008301;28;20219;-65
2024/02/10 09:40:18;;;;;;;11.50;8.23;;;9.90;60.50;;;;;;5008523;28;20245;-65
2024/02/10 09:42:46;;;;;;;10.83;7.23;;;9.90;60.20;;;;;;5008466;28;20229;-65
2024/02/10 09:45:13;;;;;;;9.50;8.40;;;10.00;58.00;;;;;;5010606;28;20223;-64
2024/02/10 09:47:41;;;;;;;10.90;7.27;;;10.00;58.00;;;;;;5005853;28;20209;-65
2024/02/10 09:50:13;;;;;;;7.87;6.50;;;10.00;57.90;;;;;;5008736;28;20674;-65
2024/02/10 09:52:46;;;;;;;9.93;6.83;;;10.10;55.40;;;;;;5008789;28;20246;-65
2024/02/10 09:55:13;;;;;;;7.37;5.67;;;10.10;54.90;;;;;;5015294;28;20217;-65
2024/02/10 09:57:39;;;;;;;7.60;5.37;;;10.20;54.80;;;;;;5006015;28;20629;-65
2024/02/10 10:00:07;;;;;;;10.03;5.23;;;10.20;54.20;;;;;;5007132;28;20268;-65
2024/02/10 10:02:33;;;;;;;6.93;5.30;;;10.30;54.70;;;;;;5011816;28;20317;-65
2024/02/10 10:05:00;;;;;;;8.30;5.80;;;10.30;54.60;;;;;;5007390;28;20218;-65
2024/02/10 10:07:26;;;;;;;7.43;5.60;;;10.40;53.90;;;;;;5010917;28;20234;-65
2024/02/10 10:09:53;;;;;;;7.80;5.20;;;10.40;54.10;;;;;;4994173;28;20261;-63
2024/02/10 10:12:19;;;;;;;5.77;5.17;;;10.50;53.40;;;;;;5012115;28;20234;-63
2024/02/10 10:14:47;;;;;;;6.07;5.47;;;10.50;52.40;;;;;;5008415;28;20697;-64
2024/02/10 10:17:14;;;;;;;6.77;5.20;;;10.50;52.40;;;;;;5006808;28;20210;-64
2024/02/10 10:19:41;;;;;;;5.03;4.53;;;10.70;52.20;;;;;;5009048;28;20647;-63
2024/02/10 10:22:07;;;;;;;6.67;5.10;;;10.80;51.90;;;;;;5002141;28;20282;-65
2024/02/10 10:24:34;;;;;;;8.80;5.53;;;10.80;52.20;;;;;;5002474;28;20269;-64
2024/02/10 10:27:00;;;;;;;5.63;5.03;;;11.00;51.50;;;;;;4994086;28;20266;-64
2024/02/10 10:29:27;;;;;;;7.23;5.23;;;11.40;50.60;;;;;;5010412;28;20227;-64
2024/02/10 10:31:54;;;;;;;4.77;4.30;;;11.60;48.70;;;;;;5008473;28;20231;-64
2024/02/10 10:34:22;;;;;;;4.20;3.70;;;11.60;48.00;;;;;;4997038;28;20581;-64
2024/02/10 10:36:49;;;;;;;4.53;4.00;;;11.80;48.30;;;;;;5004709;28;20211;-64
2024/02/10 10:39:15;;;;;;;5.37;3.80;;;11.80;46.80;;;;;;5008033;28;20663;-65
2024/02/10 10:41:42;;;;;;;4.23;3.70;;;11.80;46.10;;;;;;5005388;28;20262;-65
2024/02/10 10:44:09;;;;;;;6.47;4.07;;;11.70;46.40;;;;;;5013023;28;20645;-64
2024/02/10 10:46:36;;;;;;;4.63;3.70;;;11.70;46.80;;;;;;5003370;28;20211;-64
2024/02/10 10:49:02;;;;;;;4.53;4.13;;;11.80;47.20;;;;;;5004553;28;20342;-64
2024/02/10 10:51:29;;;;;;;7.83;4.40;;;11.80;47.40;;;;;;4995451;28;20231;-64
2024/02/10 10:53:55;;;;;;;4.60;4.20;;;11.80;47.80;;;;;;4992251;28;20236;-64
2024/02/10 10:56:24;;;;;;;5.33;4.13;;;11.80;47.50;;;;;;4995124;28;20539;-64
2024/02/10 10:58:51;;;;;;;4.87;4.47;;;11.80;48.20;;;;;;4992843;28;20204;-65
2024/02/10 11:01:20;;;;;;;5.53;4.97;;;11.70;48.40;;;;;;4997220;28;20313;-65
2024/02/10 11:03:48;;;;;;;7.67;5.70;;;11.60;48.40;;;;;;4994573;28;20270;-65
2024/02/10 11:06:15;;;;;;;6.33;4.70;;;11.50;49.40;;;;;;4994104;28;20637;-65
2024/02/10 11:08:42;;;;;;;6.43;5.23;;;11.50;49.50;;;;;;4993864;28;20248;-64
2024/02/10 11:11:10;;;;;;;7.00;5.27;;;11.50;50.00;;;;;;4981171;28;20226;-64
2024/02/10 11:13:38;;;;;;;7.53;4.93;;;11.40;50.00;;;;;;4989885;28;20208;-64
2024/02/10 11:16:04;;;;;;;7.07;4.77;;;11.40;50.30;;;;;;4997359;28;20242;-65
2024/02/10 11:18:31;;;;;;;7.83;4.93;;;11.40;50.30;;;;;;4996301;28;20216;-64
2024/02/10 11:20:58;;;;;;;6.90;4.93;;;11.40;50.30;;;;;;4987006;28;20241;-64
2024/02/10 11:23:24;;;;;;;7.87;5.60;;;11.40;50.70;;;;;;4993200;28;20278;-64
2024/02/10 11:25:52;;;;;;;5.70;5.10;;;11.20;50.70;;;;;;4994140;28;20211;-65
2024/02/10 11:28:20;;;;;;;6.33;5.20;;;11.20;51.00;;;;;;4999495;28;20224;-65
2024/02/10 11:30:47;;;;;;;6.27;5.43;;;11.30;51.00;;;;;;4999602;28;20679;-65
2024/02/10 11:33:14;;;;;;;6.43;4.97;;;11.30;50.70;;;;;;4994951;28;20240;-65
2024/02/10 11:35:40;;;;;;;6.80;4.67;;;11.30;50.20;;;;;;4994151;28;20276;-65
2024/02/10 11:38:06;;;;;;;6.80;4.60;;;11.40;50.30;;;;;;4999715;28;20199;-65
2024/02/10 11:40:33;;;;;;;6.53;4.87;;;11.30;50.20;;;;;;4995748;28;20691;-65
2024/02/10 11:42:59;;;;;;;7.13;4.40;;;11.40;50.30;;;;;;5000527;28;20305;-65
2024/02/10 11:45:26;;;;;;;5.00;4.40;;;11.30;50.20;;;;;;4992838;28;20235;-64
2024/02/10 11:47:54;;;;;;;5.77;4.60;;;11.30;50.20;;;;;;4993729;28;20276;-65
2024/02/10 11:50:20;;;;;;;7.73;4.70;;;11.30;50.20;;;;;;4991797;28;20248;-65
2024/02/10 11:52:47;;;;;;;5.13;4.40;;;11.30;50.20;;;;;;4983702;28;20246;-65
2024/02/10 11:55:14;;;;;;;5.43;4.13;;;11.30;50.20;;;;;;4983620;28;20630;-65
2024/02/10 11:57:41;;;;;;;7.63;4.70;;;11.30;50.80;;;;;;4981105;28;20215;-65
2024/02/10 12:00:12;;;;;;;4.77;4.30;;;11.30;50.50;;;;;;4998546;28;20210;-64
2024/02/10 12:02:38;;;;;;;5.90;4.73;;;11.40;50.60;;;;;;4997274;28;20254;-65
2024/02/10 12:05:05;;;;;;;7.83;5.20;;;11.30;50.90;;;;;;4998074;28;20207;-65
2024/02/10 12:07:31;;;;;;;6.60;4.73;;;11.30;51.30;;;;;;4995731;28;20332;-65
2024/02/10 12:09:58;;;;;;;6.70;4.77;;;11.40;51.50;;;;;;5000230;28;20259;-64
2024/02/10 12:12:24;;;;;;;4.90;4.40;;;11.30;51.60;;;;;;5003472;28;20226;-65
2024/02/10 12:14:51;;;;;;;4.80;4.40;;;11.40;50.50;;;;;;4997506;28;20202;-65
2024/02/10 12:17:20;;;;;;;5.23;4.43;;;11.40;50.20;;;;;;5007748;28;20254;-65
2024/02/10 12:19:46;;;;;;;5.20;4.40;;;11.50;50.10;;;;;;5011906;28;20210;-64
2024/02/10 12:22:13;;;;;;;4.90;4.40;;;11.50;50.40;;;;;;5008423;28;20231;-64
2024/02/10 12:24:40;;;;;;;4.63;4.23;;;11.60;50.50;;;;;;4998303;28;20680;-65
2024/02/10 12:27:06;;;;;;;6.80;4.70;;;11.50;50.00;;;;;;5006145;28;20218;-64
2024/02/10 12:29:33;;;;;;;5.67;4.47;;;11.60;50.50;;;;;;5002499;28;20272;-64
2024/02/10 12:32:00;;;;;;;5.17;4.67;;;11.50;50.00;;;;;;5004477;28;20230;-65
2024/02/10 12:34:26;;;;;;;5.77;4.67;;;11.60;50.30;;;;;;5010788;28;20536;-64
2024/02/10 12:36:53;;;;;;;5.40;4.27;;;11.60;50.50;;;;;;5011084;28;20250;-64
2024/02/10 12:39:20;;;;;;;7.80;5.37;;;11.60;50.50;;;;;;5011775;28;20218;-64
2024/02/10 12:41:47;;;;;;;6.07;4.20;;;11.70;50.50;;;;;;5011184;28;20312;-64
2024/02/10 12:44:13;;;;;;;7.70;4.77;;;11.70;50.30;;;;;;5011337;28;20271;-64
2024/02/10 12:46:39;;;;;;;5.83;4.97;;;11.80;49.80;;;;;;5000119;28;20669;-64